Time;durP1;ratioP1;P1;durP2;ratioP2;P2;SDS_P1;SDS_P2;PMS_P1;PMS_P2;Temp;Humidity;BMP_temperature;BMP_pressure;BME280_temperature;BME280_humidity;BME280_pressure;Samples;Min_cycle;Max_cycle;Signal;HPM_P1;HPM_P2
2022/03/24 15:54:39;;;;;;;42.88;25.27;;;17.80;59.30;;;;;;2299776;62;30257;-69
2022/03/24 15:57:07;;;;;;;31.60;23.27;;;17.80;62.00;;;;;;2299195;62;30124;-73
2022/03/24 15:59:34;;;;;;;29.67;23.23;;;17.80;62.70;;;;;;2299615;62;30479;-76
2022/03/24 16:02:00;;;;;;;29.20;23.77;;;17.80;63.50;;;;;;2299149;62;30904;-73
2022/03/24 16:04:26;;;;;;;29.00;22.83;;;17.80;63.90;;;;;;2299158;62;30589;-75
2022/03/24 16:06:52;;;;;;;29.85;22.10;;;17.80;64.20;;;;;;2299524;62;30332;-78
2022/03/24 16:09:18;;;;;;;29.52;22.45;;;17.90;64.50;;;;;;2290257;62;30448;-73
2022/03/24 16:11:44;;;;;;;46.28;38.50;;;17.90;64.50;;;;;;2290753;62;30403;-74
2022/03/24 16:14:10;;;;;;;51.03;42.60;;;18.40;63.00;;;;;;2290253;62;30478;-74
2022/03/24 16:16:36;;;;;;;47.15;40.55;;;19.10;61.90;;;;;;2290994;62;30222;-73
2022/03/24 16:19:04;;;;;;;48.25;40.08;;;19.60;60.10;;;;;;2290146;62;30439;-72
2022/03/24 16:21:30;;;;;;;36.13;30.23;;;20.10;59.00;;;;;;2283738;62;31145;-73
2022/03/24 16:23:57;;;;;;;33.45;29.35;;;20.50;57.40;;;;;;2290802;62;31722;-70
2022/03/24 16:26:23;;;;;;;33.47;28.73;;;20.90;57.10;;;;;;2289459;62;30378;-70
2022/03/24 16:28:49;;;;;;;32.83;29.00;;;21.00;56.30;;;;;;2291021;62;30654;-71
2022/03/24 16:31:17;;;;;;;31.33;28.02;;;20.90;56.50;;;;;;2290311;62;30171;-72
2022/03/24 16:33:43;;;;;;;30.92;27.48;;;20.60;56.80;;;;;;2290836;62;31182;-71
2022/03/24 16:36:11;;;;;;;31.83;28.15;;;20.40;57.30;;;;;;2290895;62;30157;-71
2022/03/24 16:38:37;;;;;;;33.15;28.10;;;20.30;57.60;;;;;;2290991;62;30314;-76
2022/03/24 16:41:08;;;;;;;29.20;25.25;;;20.10;58.00;;;;;;2291156;62;31615;-77
2022/03/24 16:43:34;;;;;;;33.58;27.38;;;20.00;58.10;;;;;;2299361;62;30545;-78
2022/03/24 16:46:01;;;;;;;30.15;26.35;;;19.90;58.50;;;;;;2289512;62;31144;-79
2022/03/24 16:48:30;;;;;;;29.50;26.40;;;19.70;58.60;;;;;;2293079;62;30556;-77
2022/03/24 16:51:07;;;;;;;31.50;26.83;;;19.70;58.80;;;;;;2289376;62;30515;-72
2022/03/24 16:53:33;;;;;;;29.08;25.73;;;19.60;58.90;;;;;;2290202;62;32461;-72
2022/03/24 16:55:59;;;;;;;29.95;25.85;;;19.50;59.20;;;;;;2289392;62;30182;-76
2022/03/24 16:58:29;;;;;;;28.48;24.65;;;19.40;59.20;;;;;;2281561;62;30218;-77
2022/03/24 17:00:56;;;;;;;28.80;25.80;;;19.40;59.50;;;;;;2294622;62;30755;-75
2022/03/24 17:03:22;;;;;;;27.67;24.25;;;19.30;59.50;;;;;;2293637;62;30542;-73
2022/03/24 17:05:49;;;;;;;26.90;24.00;;;19.20;59.30;;;;;;2291772;62;30218;-75
2022/03/24 17:08:16;;;;;;;27.25;24.17;;;19.10;59.50;;;;;;2263151;62;30171;-75
2022/03/24 17:10:41;;;;;;;26.88;23.98;;;19.10;59.70;;;;;;2283004;62;30326;-73
2022/03/24 17:13:07;;;;;;;27.30;24.35;;;19.00;59.70;;;;;;2282472;62;30244;-72
2022/03/24 17:15:33;;;;;;;28.58;25.10;;;19.00;59.80;;;;;;2283775;62;30331;-70
2022/03/24 17:18:02;;;;;;;28.50;23.75;;;18.90;59.50;;;;;;2276888;62;30925;-69
2022/03/24 17:20:28;;;;;;;32.00;26.35;;;18.80;59.90;;;;;;2276346;62;30259;-70
2022/03/24 17:23:03;;;;;;;27.98;25.08;;;18.70;59.70;;;;;;2284619;62;30362;-70
2022/03/24 17:25:29;;;;;;;29.83;25.90;;;18.70;59.80;;;;;;2290638;62;30191;-69
2022/03/24 17:27:55;;;;;;;27.17;24.33;;;18.60;59.90;;;;;;2288552;62;30535;-73
2022/03/24 17:30:21;;;;;;;27.60;24.70;;;18.50;60.00;;;;;;2289845;62;30887;-74
2022/03/24 17:32:48;;;;;;;27.30;24.40;;;18.40;60.00;;;;;;2278417;62;30083;-73
2022/03/24 17:35:16;;;;;;;28.63;25.55;;;18.30;60.10;;;;;;2282945;62;30799;-70
2022/03/24 17:37:42;;;;;;;26.70;23.98;;;18.30;60.40;;;;;;2283429;62;30873;-71
2022/03/24 17:40:17;;;;;;;27.63;24.65;;;18.20;60.50;;;;;;2284929;62;31999;-71
2022/03/24 17:42:47;;;;;;;29.30;25.25;;;18.20;60.30;;;;;;2275492;62;30218;-71
2022/03/24 17:45:13;;;;;;;27.45;24.25;;;18.10;60.70;;;;;;2274730;62;30311;-71
2022/03/24 17:47:39;;;;;;;29.85;25.65;;;18.00;60.70;;;;;;2283278;62;30306;-71
2022/03/24 17:50:07;;;;;;;28.75;25.17;;;17.90;60.90;;;;;;2284382;62;30974;-77
2022/03/24 17:52:33;;;;;;;27.98;25.17;;;17.90;61.00;;;;;;2276944;62;30739;-75
2022/03/24 17:54:59;;;;;;;28.45;24.85;;;17.80;61.00;;;;;;2282239;62;30254;-77
2022/03/24 17:57:27;;;;;;;27.65;24.48;;;17.80;61.20;;;;;;2283883;62;31006;-70
2022/03/24 17:59:58;;;;;;;28.67;23.45;;;17.70;61.10;;;;;;2283485;62;31431;-75
2022/03/24 18:02:23;;;;;;;31.08;23.45;;;17.70;61.30;;;;;;2283882;62;30423;-75
2022/03/24 18:04:49;;;;;;;25.10;20.48;;;17.70;61.60;;;;;;2287603;62;30548;-74
2022/03/24 18:07:15;;;;;;;23.90;21.50;;;17.60;61.80;;;;;;2284388;62;30693;-75
2022/03/24 18:09:41;;;;;;;25.17;22.55;;;17.60;62.20;;;;;;2291183;62;35463;-75
2022/03/24 18:12:08;;;;;;;26.23;22.63;;;17.60;62.50;;;;;;2284097;62;30711;-75
2022/03/24 18:14:34;;;;;;;25.33;21.20;;;17.60;62.60;;;;;;2291742;62;30374;-74
2022/03/24 18:17:00;;;;;;;25.52;22.58;;;17.60;62.60;;;;;;2290664;62;31067;-76
2022/03/24 18:19:26;;;;;;;24.42;21.83;;;17.60;62.70;;;;;;2283199;62;31136;-76
2022/03/24 18:21:52;;;;;;;30.23;21.70;;;17.60;62.80;;;;;;2291182;62;30699;-76
2022/03/24 18:24:22;;;;;;;28.10;22.10;;;17.60;62.90;;;;;;2290054;62;30501;-77
2022/03/24 18:26:49;;;;;;;23.30;20.85;;;17.60;63.00;;;;;;2282079;62;30363;-76
2022/03/24 18:29:15;;;;;;;28.05;21.40;;;17.60;63.10;;;;;;2283497;62;31463;-76
2022/03/24 18:31:42;;;;;;;24.73;21.15;;;17.60;63.30;;;;;;2283135;62;30163;-76
2022/03/24 18:34:09;;;;;;;24.73;21.38;;;17.60;63.40;;;;;;2282552;62;30626;-75
2022/03/24 18:36:35;;;;;;;24.35;21.75;;;17.60;63.40;;;;;;2281951;62;31469;-76
2022/03/24 18:39:07;;;;;;;23.08;20.65;;;17.60;63.40;;;;;;2282932;62;30283;-75
2022/03/24 18:41:34;;;;;;;27.38;21.83;;;17.60;63.60;;;;;;2290908;62;30713;-75
2022/03/24 18:43:59;;;;;;;23.75;21.17;;;17.60;63.60;;;;;;2290993;62;30296;-75
2022/03/24 18:46:25;;;;;;;22.67;19.40;;;17.50;63.80;;;;;;2283681;62;31121;-76
2022/03/24 18:48:52;;;;;;;23.80;21.02;;;17.50;63.70;;;;;;2291875;62;30751;-77
2022/03/24 18:51:18;;;;;;;29.80;22.95;;;17.60;63.80;;;;;;2283612;62;30283;-75
2022/03/24 18:53:44;;;;;;;23.35;20.95;;;17.50;63.90;;;;;;2290248;62;30282;-75
2022/03/24 18:56:10;;;;;;;24.02;20.50;;;17.50;64.00;;;;;;2289867;62;30534;-74
2022/03/24 18:58:36;;;;;;;30.42;21.85;;;17.50;64.00;;;;;;2284068;62;30348;-74
2022/03/24 19:01:04;;;;;;;23.40;20.90;;;17.50;64.10;;;;;;2276712;62;30976;-75
2022/03/24 19:03:30;;;;;;;24.23;21.63;;;17.50;64.30;;;;;;2283767;62;30190;-74
2022/03/24 19:05:56;;;;;;;28.55;21.38;;;17.50;64.40;;;;;;2285749;62;30478;-75
2022/03/24 19:08:22;;;;;;;25.75;21.73;;;17.50;64.60;;;;;;2282506;62;31293;-75
2022/03/24 19:10:48;;;;;;;24.23;21.60;;;17.40;64.60;;;;;;2275200;62;30807;-74
2022/03/24 19:13:21;;;;;;;30.48;22.13;;;17.40;64.70;;;;;;2283027;62;30080;-75
2022/03/24 19:15:46;;;;;;;25.80;22.30;;;17.40;64.90;;;;;;2284163;62;30307;-73
2022/03/24 19:18:15;;;;;;;25.67;22.98;;;17.40;64.90;;;;;;2283877;62;31147;-73
2022/03/24 19:20:41;;;;;;;25.67;21.33;;;17.40;65.10;;;;;;2277967;62;30426;-74
2022/03/24 19:23:09;;;;;;;23.52;21.00;;;17.40;65.00;;;;;;2276801;62;30100;-74
2022/03/24 19:25:35;;;;;;;24.05;21.52;;;17.40;65.10;;;;;;2284493;62;30215;-74
2022/03/24 19:28:00;;;;;;;23.33;20.83;;;17.40;65.10;;;;;;2283333;62;33228;-74
2022/03/24 19:30:26;;;;;;;28.17;22.25;;;17.40;65.10;;;;;;2286433;62;30167;-73
2022/03/24 19:32:53;;;;;;;24.38;21.77;;;17.40;65.30;;;;;;2285332;62;30102;-74
2022/03/24 19:35:20;;;;;;;24.67;22.08;;;17.40;65.30;;;;;;2285027;62;30396;-74
2022/03/24 19:37:47;;;;;;;22.88;20.50;;;17.30;65.40;;;;;;2288084;62;31032;-74
2022/03/24 19:40:14;;;;;;;26.98;24.17;;;17.30;65.50;;;;;;2276946;62;30054;-74
2022/03/24 19:42:41;;;;;;;26.40;23.60;;;17.30;65.50;;;;;;2284253;62;30547;-74
2022/03/24 19:45:07;;;;;;;25.55;22.83;;;17.30;65.60;;;;;;2284188;62;30426;-74
2022/03/24 19:47:35;;;;;;;26.38;23.58;;;17.30;65.70;;;;;;2275619;62;31309;-74
2022/03/24 19:50:00;;;;;;;25.25;22.65;;;17.20;65.70;;;;;;2283106;62;30199;-74
2022/03/24 19:52:26;;;;;;;25.77;22.40;;;17.20;65.80;;;;;;2283482;62;30322;-74
2022/03/24 19:54:58;;;;;;;28.83;24.38;;;17.20;65.90;;;;;;2284340;62;29995;-75
2022/03/24 19:57:24;;;;;;;24.30;21.75;;;17.20;66.20;;;;;;2283812;62;32259;-74
2022/03/24 19:59:50;;;;;;;25.77;22.92;;;17.20;66.20;;;;;;2283857;62;31802;-73
2022/03/24 20:02:20;;;;;;;27.67;24.75;;;17.20;66.30;;;;;;2284111;62;30285;-74
2022/03/24 20:04:47;;;;;;;25.85;23.05;;;17.20;66.40;;;;;;2284159;62;30288;-74
2022/03/24 20:07:16;;;;;;;26.60;23.75;;;17.10;66.40;;;;;;2284130;62;30893;-74
2022/03/24 20:09:41;;;;;;;27.13;23.20;;;17.20;66.60;;;;;;2284241;62;31608;-73
2022/03/24 20:12:11;;;;;;;26.05;23.35;;;17.10;66.60;;;;;;2283579;62;30411;-74
2022/03/24 20:14:37;;;;;;;24.95;22.27;;;17.20;66.80;;;;;;2284355;62;30123;-74
2022/03/24 20:17:04;;;;;;;24.83;22.30;;;17.10;66.80;;;;;;2284161;62;30965;-75
2022/03/24 20:19:29;;;;;;;26.25;23.42;;;17.10;66.90;;;;;;2284271;62;30286;-74
2022/03/24 20:21:56;;;;;;;36.15;22.95;;;17.00;66.90;;;;;;2277932;62;30292;-75
2022/03/24 20:24:22;;;;;;;27.55;22.17;;;17.00;67.10;;;;;;2292276;62;30321;-74
2022/03/24 20:26:48;;;;;;;24.02;21.42;;;17.10;67.00;;;;;;2292301;62;30759;-75
2022/03/24 20:29:14;;;;;;;22.88;20.48;;;17.10;67.00;;;;;;2292457;62;30991;-75
2022/03/24 20:31:40;;;;;;;22.63;20.35;;;17.10;66.90;;;;;;2285088;62;32333;-74
2022/03/24 20:34:06;;;;;;;24.50;21.65;;;17.10;66.80;;;;;;2283706;62;30208;-73
2022/03/24 20:36:35;;;;;;;23.33;20.92;;;17.10;66.80;;;;;;2292105;62;30129;-73
2022/03/24 20:39:02;;;;;;;23.05;20.65;;;17.10;66.80;;;;;;2292104;62;30299;-72
2022/03/24 20:41:28;;;;;;;22.85;20.52;;;17.10;66.80;;;;;;2286168;62;30122;-74
2022/03/24 20:43:54;;;;;;;21.42;19.13;;;17.10;66.90;;;;;;2293686;62;30735;-74
2022/03/24 20:46:21;;;;;;;23.50;20.38;;;17.10;66.90;;;;;;2288853;62;30138;-73
2022/03/24 20:48:50;;;;;;;22.60;20.27;;;17.10;66.90;;;;;;2276371;62;30959;-74
2022/03/24 20:51:18;;;;;;;24.73;21.95;;;17.10;67.00;;;;;;2290929;62;29981;-74
2022/03/24 20:53:44;;;;;;;24.15;21.27;;;17.10;66.90;;;;;;2292077;62;30627;-74
2022/03/24 20:56:10;;;;;;;23.88;21.10;;;17.10;67.00;;;;;;2292817;62;30361;-74
2022/03/24 20:58:36;;;;;;;24.13;21.55;;;17.10;67.00;;;;;;2283261;62;32223;-74
2022/03/24 21:01:02;;;;;;;23.00;20.60;;;17.10;67.00;;;;;;2277115;62;32710;-73
2022/03/24 21:03:33;;;;;;;24.97;21.50;;;17.10;67.00;;;;;;2284994;62;30550;-74
2022/03/24 21:06:00;;;;;;;23.23;20.77;;;17.10;67.10;;;;;;2284503;62;30258;-74
2022/03/24 21:08:28;;;;;;;24.90;22.38;;;17.10;67.10;;;;;;2278303;62;30705;-73
2022/03/24 21:10:54;;;;;;;24.60;21.08;;;17.10;67.20;;;;;;2281116;62;30174;-73
2022/03/24 21:13:20;;;;;;;23.13;20.70;;;17.10;67.20;;;;;;2292920;62;29998;-73
2022/03/24 21:15:46;;;;;;;23.35;20.88;;;17.10;67.30;;;;;;2285491;62;30170;-73
2022/03/24 21:18:12;;;;;;;24.30;21.70;;;17.10;67.30;;;;;;2288307;62;30303;-75
2022/03/24 21:20:38;;;;;;;22.65;20.45;;;17.10;67.30;;;;;;2285035;62;30122;-73
2022/03/24 21:23:05;;;;;;;21.33;19.02;;;17.00;67.40;;;;;;2285062;62;30434;-72
2022/03/24 21:25:31;;;;;;;22.73;20.20;;;17.00;67.40;;;;;;2279862;62;31132;-70
2022/03/24 21:27:58;;;;;;;21.63;18.65;;;17.10;67.50;;;;;;2277418;62;30775;-72
2022/03/24 21:30:25;;;;;;;22.60;19.80;;;17.00;67.60;;;;;;2284358;62;30452;-72
2022/03/24 21:32:54;;;;;;;20.83;18.70;;;17.00;67.60;;;;;;2284935;62;30237;-73
2022/03/24 21:35:24;;;;;;;23.50;20.25;;;17.00;67.60;;;;;;2280889;62;32044;-74
2022/03/24 21:37:50;;;;;;;20.27;18.05;;;17.00;67.60;;;;;;2278013;62;31214;-73
2022/03/24 21:40:16;;;;;;;20.80;18.67;;;17.00;67.70;;;;;;2285077;62;30154;-73
2022/03/24 21:42:43;;;;;;;20.90;18.50;;;17.00;67.70;;;;;;2270725;62;30542;-74
2022/03/24 21:45:09;;;;;;;22.73;20.00;;;17.00;67.70;;;;;;2285217;62;30357;-73
2022/03/24 21:47:35;;;;;;;19.98;17.88;;;16.90;67.70;;;;;;2285075;62;30157;-73
2022/03/24 21:50:01;;;;;;;20.83;18.63;;;17.00;67.80;;;;;;2284414;62;30428;-73
2022/03/24 21:52:27;;;;;;;21.88;18.70;;;16.90;67.90;;;;;;2277520;62;30325;-73
2022/03/24 21:54:55;;;;;;;19.65;17.65;;;16.90;67.80;;;;;;2277689;62;30383;-73
2022/03/24 21:57:23;;;;;;;20.45;18.38;;;16.90;67.80;;;;;;2284879;62;31126;-73
2022/03/24 21:59:49;;;;;;;20.98;18.58;;;16.90;67.80;;;;;;2277082;62;30008;-73
2022/03/24 22:02:15;;;;;;;19.83;17.35;;;16.90;67.80;;;;;;2283847;62;30241;-74
2022/03/24 22:04:45;;;;;;;21.00;18.83;;;16.90;67.90;;;;;;2276599;62;31155;-74
2022/03/24 22:07:11;;;;;;;21.30;19.10;;;16.90;67.80;;;;;;2277575;62;30545;-74
2022/03/24 22:09:37;;;;;;;21.23;19.13;;;16.90;67.90;;;;;;2284875;62;30321;-74
2022/03/24 22:12:04;;;;;;;19.38;17.58;;;16.90;67.80;;;;;;2285040;62;30246;-73
2022/03/24 22:14:30;;;;;;;23.00;19.33;;;16.90;68.00;;;;;;2284907;62;30454;-73
2022/03/24 22:16:59;;;;;;;20.30;18.23;;;16.90;68.00;;;;;;2284763;62;30170;-74
2022/03/24 22:19:26;;;;;;;19.95;17.83;;;16.90;68.00;;;;;;2284944;62;30253;-73
2022/03/24 22:21:52;;;;;;;19.13;17.13;;;16.90;68.00;;;;;;2284807;62;30302;-72
2022/03/24 22:24:18;;;;;;;19.80;17.77;;;17.00;68.10;;;;;;2277261;62;32718;-71
2022/03/24 22:26:43;;;;;;;18.38;16.60;;;17.00;67.90;;;;;;2284892;62;30188;-72
2022/03/24 22:29:10;;;;;;;20.23;18.23;;;17.00;67.80;;;;;;2277510;62;30308;-73
2022/03/24 22:31:39;;;;;;;18.52;16.65;;;17.00;68.10;;;;;;2270526;62;30345;-73
2022/03/24 22:34:05;;;;;;;18.10;16.33;;;17.00;67.90;;;;;;2277070;62;30273;-73
2022/03/24 22:36:30;;;;;;;18.25;16.45;;;17.00;68.00;;;;;;2284862;62;31013;-74
2022/03/24 22:38:57;;;;;;;18.17;16.30;;;17.00;67.80;;;;;;2284753;62;30150;-72
2022/03/24 22:41:25;;;;;;;18.83;16.90;;;17.00;67.90;;;;;;2284933;62;30306;-77
2022/03/24 22:43:51;;;;;;;17.55;15.75;;;17.00;67.80;;;;;;2284946;62;31280;-78
2022/03/24 22:46:17;;;;;;;17.98;16.20;;;17.00;67.90;;;;;;2277214;62;30499;-77
2022/03/24 22:48:43;;;;;;;20.77;15.70;;;17.10;68.20;;;;;;2284468;62;30165;-70
2022/03/24 22:51:09;;;;;;;19.45;17.45;;;17.10;67.80;;;;;;2292808;62;30196;-72
2022/03/24 22:53:35;;;;;;;16.65;15.00;;;17.10;67.60;;;;;;2292735;62;30954;-73
2022/03/24 22:56:01;;;;;;;15.55;14.05;;;17.20;68.00;;;;;;2291960;62;30111;-70
2022/03/24 22:58:27;;;;;;;18.65;15.13;;;17.10;68.00;;;;;;2284574;62;30117;-70
2022/03/24 23:00:59;;;;;;;15.65;14.07;;;17.10;67.70;;;;;;2276827;62;30031;-72
2022/03/24 23:03:28;;;;;;;15.63;14.15;;;17.00;67.60;;;;;;2284412;62;31494;-71
2022/03/24 23:05:55;;;;;;;16.70;15.00;;;17.00;67.60;;;;;;2283782;62;30626;-70
2022/03/24 23:08:21;;;;;;;17.27;15.55;;;17.00;67.60;;;;;;2276667;62;30197;-71
2022/03/24 23:10:47;;;;;;;16.25;14.75;;;16.90;67.60;;;;;;2276062;62;30200;-72
2022/03/24 23:13:13;;;;;;;20.42;16.15;;;16.90;67.60;;;;;;2283526;62;31086;-72
2022/03/24 23:15:40;;;;;;;16.58;14.88;;;16.90;67.80;;;;;;2284059;62;30665;-74
2022/03/24 23:18:09;;;;;;;17.52;15.70;;;16.80;67.60;;;;;;2284571;62;30176;-74
